createdAt,value
2023-06-10T00:02:28.693Z,98415.44
2023-06-10T00:04:56.617Z,98408.41
2023-06-10T00:07:25.111Z,98406.66
2023-06-10T00:09:52.496Z,98402.75
2023-06-10T00:12:21.314Z,98408.34
2023-06-10T00:14:51.229Z,98405.38
2023-06-10T00:17:18.948Z,98406.53
2023-06-10T00:19:48.139Z,98409.25
2023-06-10T00:22:15.686Z,98405.50
2023-06-10T00:24:43.483Z,98407.19
2023-06-10T00:27:11.060Z,98407.75
2023-06-10T00:29:40.197Z,98402.25
2023-06-10T00:32:08.595Z,98408.66
2023-06-10T00:34:36.724Z,98402.63
2023-06-10T00:37:04.902Z,98401.25
2023-06-10T00:39:32.132Z,98401.06
2023-06-10T00:41:59.491Z,98401.28
2023-06-10T00:44:27.798Z,98402.75
2023-06-10T00:46:56.960Z,98413.03
2023-06-10T00:49:24.268Z,98406.94
2023-06-10T00:51:54.321Z,98405.75
2023-06-10T00:54:22.637Z,98399.31
2023-06-10T00:56:51.107Z,98400.41
2023-06-10T00:59:18.773Z,98394.56
2023-06-10T01:01:51.029Z,98406.47
2023-06-10T01:04:20.892Z,98402.00
2023-06-10T01:07:21.030Z,98392.53
2023-06-10T01:10:09.432Z,98393.22
2023-06-10T01:13:12.974Z,98398.84
2023-06-10T01:15:41.086Z,98402.03
2023-06-10T01:18:11.161Z,98395.22
2023-06-10T01:20:41.353Z,98391.34
2023-06-10T01:23:10.611Z,98392.31
2023-06-10T01:26:02.302Z,98393.34
2023-06-10T01:28:55.111Z,98386.47
2023-06-10T01:31:51.734Z,98400.31
2023-06-10T01:34:24.531Z,98395.72
2023-06-10T01:36:53.058Z,98395.63
2023-06-10T01:39:26.491Z,98398.75
2023-06-10T01:41:55.191Z,98396.97
2023-06-10T01:44:25.591Z,98399.56
2023-06-10T01:46:52.893Z,98398.09
2023-06-10T01:49:20.237Z,98395.28
2023-06-10T01:51:47.642Z,98396.13
2023-06-10T01:54:14.989Z,98396.25
2023-06-10T01:56:42.309Z,98406.06
2023-06-10T01:59:09.593Z,98401.66
2023-06-10T02:01:36.978Z,98406.34
2023-06-10T02:04:04.693Z,98410.09
2023-06-10T02:06:33.182Z,98409.38
2023-06-10T02:09:00.548Z,98409.28
2023-06-10T02:11:30.888Z,98404.56
2023-06-10T02:13:59.029Z,98408.50
2023-06-10T02:16:27.647Z,98415.63
2023-06-10T02:18:56.849Z,98408.53
2023-06-10T02:21:24.114Z,98413.00
2023-06-10T02:23:51.652Z,98413.00
2023-06-10T02:26:19.055Z,98421.25
2023-06-10T02:28:46.481Z,98413.25
2023-06-10T02:31:15.400Z,98416.84
2023-06-10T02:33:43.015Z,98421.84
2023-06-10T02:36:14.418Z,98415.16
2023-06-10T02:38:43.117Z,98418.75
2023-06-10T02:41:11.233Z,98423.41
2023-06-10T02:43:38.710Z,98423.78
2023-06-10T02:46:06.216Z,98424.22
2023-06-10T02:48:47.323Z,98437.66
2023-06-10T02:51:20.772Z,98436.84
2023-06-10T02:53:50.948Z,98436.63
2023-06-10T02:56:18.701Z,98444.16
2023-06-10T02:58:46.931Z,98440.69
2023-06-10T03:01:16.497Z,98439.53
2023-06-10T03:03:53.738Z,98432.75
2023-06-10T03:06:21.417Z,98437.22
2023-06-10T03:08:48.963Z,98441.59
2023-06-10T03:11:20.765Z,98450.66
2023-06-10T03:13:49.460Z,98451.63
2023-06-10T03:16:19.729Z,98456.09
2023-06-10T03:18:54.981Z,98456.25
2023-06-10T03:21:25.062Z,98461.00
2023-06-10T03:23:52.934Z,98461.72
2023-06-10T03:26:22.807Z,98461.38
2023-06-10T03:28:51.021Z,98463.41
2023-06-10T03:31:20.123Z,98471.09
2023-06-10T03:33:48.173Z,98474.72
2023-06-10T03:36:16.394Z,98474.94
2023-06-10T03:38:43.830Z,98471.91
2023-06-10T03:41:11.385Z,98474.38
2023-06-10T03:43:42.065Z,98482.91
2023-06-10T03:46:09.952Z,98480.41
2023-06-10T03:48:39.784Z,98479.09
2023-06-10T03:51:08.216Z,98476.59
2023-06-10T03:53:35.420Z,98480.88
2023-06-10T03:56:02.944Z,98487.31
2023-06-10T03:58:31.330Z,98483.78
2023-06-10T04:01:00.236Z,98488.22
2023-06-10T04:03:34.358Z,98483.22
2023-06-10T04:06:02.050Z,98488.69
2023-06-10T04:08:29.490Z,98478.63
2023-06-10T04:10:57.225Z,98485.69
2023-06-10T04:13:25.425Z,98482.81
2023-06-10T04:15:56.807Z,98485.63
2023-06-10T04:18:24.309Z,98492.97
2023-06-10T04:20:55.377Z,98494.91
2023-06-10T04:23:22.748Z,98495.41
2023-06-10T04:25:50.017Z,98493.91
2023-06-10T04:28:17.309Z,98499.44
2023-06-10T04:30:46.999Z,98500.25
2023-06-10T04:33:15.118Z,98493.75
2023-06-10T04:35:43.426Z,98500.69
2023-06-10T04:38:15.269Z,98507.75
2023-06-10T04:40:43.249Z,98507.06
2023-06-10T04:43:12.232Z,98502.91
2023-06-10T04:45:40.385Z,98511.69
2023-06-10T04:48:08.813Z,98510.97
2023-06-10T04:50:36.273Z,98518.69
2023-06-10T04:53:03.815Z,98528.06
2023-06-10T04:55:32.106Z,98518.56
2023-06-10T04:57:59.334Z,98516.00
2023-06-10T05:00:26.593Z,98526.97
2023-06-10T05:02:54.196Z,98531.69
2023-06-10T05:05:21.528Z,98532.19
2023-06-10T05:07:48.767Z,98523.88
2023-06-10T05:10:16.444Z,98528.84
2023-06-10T05:12:43.765Z,98531.19
2023-06-10T05:15:12.198Z,98530.06
2023-06-10T05:17:39.725Z,98525.78
2023-06-10T05:20:07.819Z,98526.44
2023-06-10T05:22:35.718Z,98528.66
2023-06-10T05:25:03.063Z,98541.66
2023-06-10T05:27:30.379Z,98537.56
2023-06-10T05:29:57.793Z,98539.63
2023-06-10T05:32:25.162Z,98543.66
2023-06-10T05:34:52.368Z,98548.81
2023-06-10T05:37:19.729Z,98540.13
2023-06-10T05:39:47.041Z,98550.00
2023-06-10T05:42:14.452Z,98551.81
2023-06-10T05:44:41.805Z,98547.50
2023-06-10T05:47:09.164Z,98546.72
2023-06-10T05:49:36.435Z,98546.34
2023-06-10T05:52:04.208Z,98553.81
2023-06-10T05:54:31.698Z,98549.78
2023-06-10T05:56:59.278Z,98551.00
2023-06-10T05:59:26.677Z,98552.84
2023-06-10T06:01:53.920Z,98549.72
2023-06-10T06:04:21.419Z,98551.38
2023-06-10T06:06:48.784Z,98548.06
2023-06-10T06:09:16.448Z,98554.28
2023-06-10T06:11:43.820Z,98552.34
2023-06-10T06:14:10.979Z,98557.88
2023-06-10T06:16:38.270Z,98553.94
2023-06-10T06:19:05.812Z,98553.53
2023-06-10T06:21:33.134Z,98566.91
2023-06-10T06:24:01.276Z,98558.72
2023-06-10T06:26:28.997Z,98555.16
2023-06-10T06:28:56.355Z,98556.75
2023-06-10T06:31:23.778Z,98548.94
2023-06-10T06:33:51.183Z,98550.53
2023-06-10T06:36:18.424Z,98549.34
2023-06-10T06:38:45.786Z,98544.88
2023-06-10T06:41:13.150Z,98552.63
2023-06-10T06:43:40.356Z,98551.50
2023-06-10T06:46:18.125Z,98554.59
2023-06-10T06:48:46.176Z,98555.00
2023-06-10T06:51:13.602Z,98562.03
2023-06-10T06:53:45.467Z,98558.28
2023-06-10T06:56:13.755Z,98558.91
2023-06-10T06:58:41.055Z,98558.78
2023-06-10T07:01:08.577Z,98562.22
2023-06-10T07:03:35.969Z,98558.69
2023-06-10T07:06:03.387Z,98566.25
2023-06-10T07:08:30.662Z,98561.28
2023-06-10T07:10:58.044Z,98569.00
2023-06-10T07:13:25.290Z,98562.50
2023-06-10T07:15:52.636Z,98565.81
2023-06-10T07:18:19.859Z,98562.59
2023-06-10T07:20:47.069Z,98558.44
2023-06-10T07:23:14.351Z,98561.47
2023-06-10T07:25:43.203Z,98562.22
2023-06-10T07:28:10.506Z,98559.84
2023-06-10T07:30:37.834Z,98561.56
2023-06-10T07:33:06.887Z,98556.75
2023-06-10T07:35:34.670Z,98554.31
2023-06-10T07:38:01.947Z,98553.91
2023-06-10T07:40:29.242Z,98554.06
2023-06-10T07:42:56.719Z,98544.78
2023-06-10T07:45:24.128Z,98542.59
2023-06-10T07:47:51.548Z,98546.53
2023-06-10T07:50:19.126Z,98547.22
2023-06-10T07:52:46.472Z,98538.28
2023-06-10T07:55:13.865Z,98541.22
2023-06-10T07:57:41.998Z,98532.47
2023-06-10T08:00:10.728Z,98537.59
2023-06-10T08:02:41.265Z,98535.88
2023-06-10T08:05:09.456Z,98541.91
2023-06-10T08:07:37.161Z,98545.53
2023-06-10T08:10:07.594Z,98547.06
2023-06-10T08:12:36.448Z,98542.91
2023-06-10T08:15:05.708Z,98533.78
2023-06-10T08:17:33.164Z,98528.59
2023-06-10T08:20:01.908Z,98529.75
2023-06-10T08:22:30.544Z,98523.06
2023-06-10T08:24:57.894Z,98532.84
2023-06-10T08:27:26.104Z,98533.88
2023-06-10T08:29:53.424Z,98534.16
2023-06-10T08:32:20.936Z,98527.72
2023-06-10T08:34:48.736Z,98521.63
2023-06-10T08:37:16.206Z,98526.22
2023-06-10T08:39:43.918Z,98521.44
2023-06-10T08:42:40.999Z,98515.91
2023-06-10T08:45:18.674Z,98520.56
2023-06-10T08:47:54.961Z,98513.34
2023-06-10T08:50:24.099Z,98504.09
2023-06-10T08:52:59.456Z,98503.69
2023-06-10T08:55:43.574Z,98512.16
2023-06-10T08:58:12.106Z,98506.41
2023-06-10T09:00:40.045Z,98500.59
2023-06-10T09:03:09.919Z,98500.47
2023-06-10T09:05:38.460Z,98491.44
2023-06-10T09:08:09.385Z,98495.13
2023-06-10T09:10:36.814Z,98490.19
2023-06-10T09:13:04.254Z,98500.41
2023-06-10T09:15:31.697Z,98490.22
2023-06-10T09:18:00.757Z,98481.03
2023-06-10T09:20:28.160Z,98483.03
2023-06-10T09:22:55.439Z,98488.22
2023-06-10T09:25:39.137Z,98505.25
2023-06-10T09:28:15.951Z,98511.59
2023-06-10T09:30:43.328Z,98489.16
2023-06-10T09:33:17.196Z,98494.50
2023-06-10T09:35:51.467Z,98480.28
2023-06-10T09:38:23.781Z,98483.34
2023-06-10T09:40:54.980Z,98486.00
2023-06-10T09:43:23.442Z,98477.94
2023-06-10T09:45:58.505Z,98485.09
2023-06-10T09:48:26.690Z,98492.91
2023-06-10T09:50:54.056Z,98482.53
2023-06-10T09:53:22.211Z,98491.56
2023-06-10T09:55:49.623Z,98485.81
2023-06-10T09:58:17.021Z,98489.97
2023-06-10T10:00:44.260Z,98473.72
2023-06-10T10:03:24.244Z,98481.00
2023-06-10T10:06:01.640Z,98472.72
2023-06-10T10:08:29.754Z,98465.31
2023-06-10T10:10:59.696Z,98478.03
2023-06-10T10:13:29.200Z,98476.06
2023-06-10T10:16:16.645Z,98475.97
2023-06-10T10:18:55.792Z,98474.19
2023-06-10T10:21:33.237Z,98467.50
2023-06-10T10:24:19.068Z,98467.19
2023-06-10T10:26:51.722Z,98463.63
2023-06-10T10:29:32.321Z,98469.84
2023-06-10T10:32:02.032Z,98457.22
2023-06-10T10:35:07.085Z,98458.59
2023-06-10T10:37:36.501Z,98475.38
2023-06-10T10:40:06.085Z,98462.41
2023-06-10T10:42:34.871Z,98458.81
2023-06-10T10:45:03.558Z,98468.75
2023-06-10T10:47:34.602Z,98468.34
2023-06-10T10:50:01.880Z,98457.38
2023-06-10T10:53:01.208Z,98451.06
2023-06-10T10:55:29.682Z,98460.34
2023-06-10T10:58:03.825Z,98448.41
2023-06-10T11:00:45.903Z,98461.34
2023-06-10T11:03:19.055Z,98449.16
2023-06-10T11:05:50.265Z,98450.41
2023-06-10T11:08:30.187Z,98440.09
2023-06-10T11:10:57.753Z,98442.03
2023-06-10T11:13:28.236Z,98437.03
2023-06-10T11:15:59.831Z,98438.16
2023-06-10T11:18:32.321Z,98434.25
2023-06-10T11:21:06.270Z,98445.94
2023-06-10T11:23:34.331Z,98447.41
2023-06-10T11:26:32.613Z,98434.09
2023-06-10T11:28:59.912Z,98422.63
2023-06-10T11:31:43.268Z,98425.22
2023-06-10T11:34:11.573Z,98434.34
2023-06-10T11:36:46.541Z,98427.75
2023-06-10T11:39:14.839Z,98426.31
2023-06-10T11:41:42.582Z,98423.34
2023-06-10T11:44:17.269Z,98422.66
2023-06-10T11:46:49.225Z,98415.91
2023-06-10T11:49:16.843Z,98420.63
2023-06-10T11:51:51.208Z,98417.94
2023-06-10T11:54:19.508Z,98402.41
2023-06-10T11:56:48.579Z,98417.50
2023-06-10T11:59:16.166Z,98416.47
2023-06-10T12:01:46.968Z,98403.56
2023-06-10T12:04:17.331Z,98411.66
2023-06-10T12:06:48.864Z,98401.63
2023-06-10T12:09:26.061Z,98404.09
2023-06-10T12:12:09.885Z,98403.06
2023-06-10T12:15:00.911Z,98410.63
2023-06-10T12:17:32.820Z,98411.44
2023-06-10T12:20:04.901Z,98414.56
2023-06-10T12:22:45.723Z,98405.53
2023-06-10T12:25:13.950Z,98392.69
2023-06-10T12:27:54.125Z,98401.25
2023-06-10T12:30:25.183Z,98395.13
2023-06-10T12:32:56.647Z,98383.97
2023-06-10T12:35:27.780Z,98386.69
2023-06-10T12:38:07.887Z,98393.28
2023-06-10T12:40:44.541Z,98399.13
2023-06-10T12:43:13.020Z,98391.06
2023-06-10T12:45:44.326Z,98394.91
2023-06-10T12:48:17.949Z,98388.31
2023-06-10T12:50:47.954Z,98387.84
2023-06-10T12:53:15.863Z,98395.84
2023-06-10T12:55:43.226Z,98381.59
2023-06-10T12:58:10.649Z,98388.41
2023-06-10T13:00:38.576Z,98382.38
2023-06-10T13:03:08.768Z,98375.78
2023-06-10T13:05:40.238Z,98384.19
2023-06-10T13:08:11.260Z,98379.44
2023-06-10T13:10:39.782Z,98366.81
2023-06-10T13:13:09.124Z,98368.50
2023-06-10T13:15:40.291Z,98381.63
2023-06-10T13:18:09.225Z,98367.44
2023-06-10T13:20:37.225Z,98350.38
2023-06-10T13:23:04.723Z,98361.09
2023-06-10T13:25:32.240Z,98359.41
2023-06-10T13:27:59.517Z,98362.31
2023-06-10T13:30:27.779Z,98362.09
2023-06-10T13:32:55.137Z,98361.31
2023-06-10T13:35:22.590Z,98362.50
2023-06-10T13:37:50.005Z,98363.72
2023-06-10T13:40:17.278Z,98360.41
2023-06-10T13:42:45.242Z,98352.13
2023-06-10T13:45:13.115Z,98335.28
2023-06-10T13:47:40.642Z,98340.56
2023-06-10T13:50:09.276Z,98338.91
2023-06-10T13:52:36.622Z,98334.56
2023-06-10T13:55:04.892Z,98332.22
2023-06-10T13:57:32.109Z,98346.50
2023-06-10T13:59:59.375Z,98333.03
2023-06-10T14:02:26.708Z,98343.75
2023-06-10T14:04:54.288Z,98330.78
2023-06-10T14:07:21.923Z,98327.50
2023-06-10T14:09:49.385Z,98314.91
2023-06-10T14:12:16.600Z,98326.56
2023-06-10T14:14:43.983Z,98322.53
2023-06-10T14:17:11.439Z,98320.88
2023-06-10T14:19:38.813Z,98324.22
2023-06-10T14:22:08.273Z,98323.38
2023-06-10T14:24:37.509Z,98326.66
2023-06-10T14:27:05.458Z,98339.78
2023-06-10T14:29:34.597Z,98329.91
2023-06-10T14:32:02.138Z,98328.69
2023-06-10T14:34:30.875Z,98337.25
2023-06-10T14:36:58.302Z,98329.91
2023-06-10T14:39:25.812Z,98335.41
2023-06-10T14:41:55.950Z,98333.63
2023-06-10T14:44:23.270Z,98329.53
2023-06-10T14:46:50.653Z,98325.31
2023-06-10T14:49:18.000Z,98326.25
2023-06-10T14:51:45.867Z,98316.78
2023-06-10T14:54:13.153Z,98324.63
2023-06-10T14:56:40.464Z,98321.72
2023-06-10T14:59:07.712Z,98314.72
2023-06-10T15:01:35.363Z,98320.91
2023-06-10T15:04:02.807Z,98315.03
2023-06-10T15:06:30.175Z,98310.97
2023-06-10T15:08:57.417Z,98301.59
2023-06-10T15:11:24.866Z,98311.84
2023-06-10T15:13:55.388Z,98328.28
2023-06-10T15:16:22.813Z,98313.00
2023-06-10T15:18:50.789Z,98313.09
2023-06-10T15:21:18.090Z,98306.03
2023-06-10T15:23:45.664Z,98299.53
2023-06-10T15:26:13.113Z,98301.59
2023-06-10T15:28:40.424Z,98312.00
2023-06-10T15:31:09.188Z,98309.22
2023-06-10T15:33:37.126Z,98296.25
2023-06-10T15:36:06.261Z,98303.25
2023-06-10T15:38:33.595Z,98301.22
2023-06-10T15:41:00.811Z,98308.00
2023-06-10T15:43:28.095Z,98305.19
2023-06-10T15:45:59.597Z,98303.53
2023-06-10T15:48:27.313Z,98293.75
2023-06-10T15:50:54.614Z,98301.19
2023-06-10T15:53:21.839Z,98293.66
2023-06-10T15:55:50.287Z,98304.44
2023-06-10T15:58:17.971Z,98297.09
2023-06-10T16:00:45.356Z,98295.44
2023-06-10T16:03:12.815Z,98297.53
2023-06-10T16:05:40.190Z,98295.84
2023-06-10T16:08:07.398Z,98292.16
2023-06-10T16:10:34.720Z,98311.06
2023-06-10T16:13:03.554Z,98291.63
2023-06-10T16:15:30.808Z,98293.28
2023-06-10T16:17:59.302Z,98302.44
2023-06-10T16:20:26.788Z,98290.00
2023-06-10T16:22:54.126Z,98288.50
2023-06-10T16:25:21.390Z,98295.06
2023-06-10T16:27:51.969Z,98290.09
2023-06-10T16:30:19.208Z,98293.31
2023-06-10T16:32:46.546Z,98295.13
2023-06-10T16:35:13.846Z,98300.06
2023-06-10T16:37:44.951Z,98290.06
2023-06-10T16:40:13.618Z,98293.53
2023-06-10T16:42:45.338Z,98289.56
2023-06-10T16:45:20.278Z,98289.28
2023-06-10T16:47:47.784Z,98298.63
2023-06-10T16:50:15.338Z,98291.88
2023-06-10T16:52:43.140Z,98286.78
2023-06-10T16:55:10.811Z,98290.97
2023-06-10T16:57:38.271Z,98290.41
2023-06-10T17:00:07.503Z,98300.38
2023-06-10T17:02:34.959Z,98308.06
2023-06-10T17:05:02.391Z,98312.81
2023-06-10T17:07:31.589Z,98312.25
2023-06-10T17:09:59.679Z,98316.06
2023-06-10T17:12:26.969Z,98320.38
2023-06-10T17:14:54.360Z,98323.59
2023-06-10T17:17:21.770Z,98328.69
2023-06-10T17:19:51.284Z,98319.69
2023-06-10T17:22:19.819Z,98324.69
2023-06-10T17:24:47.081Z,98338.41
2023-06-10T17:27:14.397Z,98333.22
2023-06-10T17:29:41.905Z,98342.16
2023-06-10T17:32:09.927Z,98330.69
2023-06-10T17:34:37.165Z,98347.75
2023-06-10T17:37:04.831Z,98338.53
2023-06-10T17:39:37.426Z,98351.13
2023-06-10T17:42:07.114Z,98345.75
2023-06-10T17:44:34.648Z,98351.06
2023-06-10T17:47:01.884Z,98353.53
2023-06-10T17:49:32.947Z,98357.53
2023-06-10T17:52:00.606Z,98356.56
2023-06-10T17:54:27.856Z,98353.25
2023-06-10T17:56:56.494Z,98367.72
2023-06-10T17:59:24.119Z,98362.59
2023-06-10T18:01:51.537Z,98367.91
2023-06-10T18:04:19.152Z,98370.38
2023-06-10T18:06:46.594Z,98367.13
2023-06-10T18:09:16.262Z,98376.09
2023-06-10T18:11:43.980Z,98376.44
2023-06-10T18:14:11.606Z,98379.34
2023-06-10T18:16:38.995Z,98378.69
2023-06-10T18:19:06.465Z,98376.44
2023-06-10T18:21:33.737Z,98379.09
2023-06-10T18:24:01.324Z,98375.38
2023-06-10T18:26:28.851Z,98383.97
2023-06-10T18:28:56.229Z,98393.25
2023-06-10T18:31:23.706Z,98396.50
2023-06-10T18:33:51.207Z,98395.41
2023-06-10T18:36:18.420Z,98415.47
2023-06-10T18:38:46.701Z,98396.28
2023-06-10T18:41:14.094Z,98393.75
2023-06-10T18:43:42.452Z,98412.38
2023-06-10T18:46:10.259Z,98395.78
2023-06-10T18:48:37.609Z,98392.44
2023-06-10T18:51:04.969Z,98408.44
2023-06-10T18:53:32.280Z,98411.50
2023-06-10T18:56:02.627Z,98414.41
2023-06-10T18:58:37.759Z,98412.34
2023-06-10T19:01:08.423Z,98415.75
2023-06-10T19:03:35.971Z,98418.50
2023-06-10T19:06:03.428Z,98426.41
2023-06-10T19:08:31.164Z,98428.28
2023-06-10T19:10:58.536Z,98433.09
2023-06-10T19:13:28.582Z,98435.34
2023-06-10T19:15:56.054Z,98444.25
2023-06-10T19:18:23.897Z,98446.28
2023-06-10T19:20:52.289Z,98447.41
2023-06-10T19:23:19.831Z,98451.50
2023-06-10T19:25:47.221Z,98447.66
2023-06-10T19:28:14.543Z,98457.78
2023-06-10T19:31:09.596Z,98461.47
2023-06-10T19:33:37.145Z,98453.97
2023-06-10T19:36:04.812Z,98460.25
2023-06-10T19:38:32.110Z,98462.19
2023-06-10T19:40:59.349Z,98469.59
2023-06-10T19:43:26.582Z,98479.84
2023-06-10T19:45:53.882Z,98474.75
2023-06-10T19:48:21.367Z,98474.56
2023-06-10T19:50:49.607Z,98478.78
2023-06-10T19:53:16.868Z,98489.13
2023-06-10T19:55:44.241Z,98489.50
2023-06-10T19:58:12.597Z,98488.78
2023-06-10T20:00:39.815Z,98495.44
2023-06-10T20:03:07.213Z,98498.44
2023-06-10T20:05:34.782Z,98496.44
2023-06-10T20:08:02.047Z,98502.13
2023-06-10T20:10:29.297Z,98505.59
2023-06-10T20:12:56.547Z,98505.22
2023-06-10T20:15:24.030Z,98511.81
2023-06-10T20:17:52.930Z,98515.94
2023-06-10T20:20:20.357Z,98518.00
2023-06-10T20:22:47.782Z,98524.63
2023-06-10T20:25:15.552Z,98531.38
2023-06-10T20:27:43.676Z,98532.06
2023-06-10T20:30:11.792Z,98529.69
2023-06-10T20:32:40.444Z,98545.03
2023-06-10T20:35:09.421Z,98542.53
2023-06-10T20:37:36.985Z,98536.97
2023-06-10T20:40:06.460Z,98543.25
2023-06-10T20:42:33.907Z,98549.88
2023-06-10T20:45:01.506Z,98551.16
2023-06-10T20:47:29.067Z,98547.84
2023-06-10T20:49:56.456Z,98550.75
2023-06-10T20:52:23.907Z,98552.63
2023-06-10T20:54:51.282Z,98559.91
2023-06-10T20:57:29.568Z,98553.53
2023-06-10T21:00:20.903Z,98561.38
2023-06-10T21:03:09.250Z,98574.03
2023-06-10T21:05:48.769Z,98567.09
2023-06-10T21:08:16.791Z,98571.44
2023-06-10T21:10:44.279Z,98565.63
2023-06-10T21:13:11.639Z,98570.75
2023-06-10T21:15:39.009Z,98570.59
2023-06-10T21:18:06.378Z,98563.16
2023-06-10T21:20:33.693Z,98574.41
2023-06-10T21:23:01.301Z,98576.28
2023-06-10T21:25:28.645Z,98576.06
2023-06-10T21:27:55.975Z,98574.50
2023-06-10T21:30:23.747Z,98583.13
2023-06-10T21:32:51.222Z,98577.91
2023-06-10T21:35:18.627Z,98573.28
2023-06-10T21:37:46.093Z,98570.47
2023-06-10T21:40:14.653Z,98574.28
2023-06-10T21:42:41.964Z,98576.84
2023-06-10T21:45:10.484Z,98571.03
2023-06-10T21:47:38.019Z,98573.13
2023-06-10T21:50:06.512Z,98579.56
2023-06-10T21:52:36.625Z,98585.97
2023-06-10T21:55:04.374Z,98579.59
2023-06-10T21:57:32.189Z,98582.34
2023-06-10T21:59:59.555Z,98579.00
2023-06-10T22:02:27.729Z,98589.94
2023-06-10T22:04:55.393Z,98583.25
2023-06-10T22:07:22.736Z,98590.81
2023-06-10T22:09:50.710Z,98590.38
2023-06-10T22:12:18.578Z,98587.84
2023-06-10T22:14:46.264Z,98581.34
2023-06-10T22:17:14.322Z,98589.22
2023-06-10T22:19:42.655Z,98587.66
2023-06-10T22:22:12.313Z,98588.03
2023-06-10T22:24:39.592Z,98589.50
2023-06-10T22:27:09.516Z,98583.59
2023-06-10T22:29:38.215Z,98583.78
2023-06-10T22:32:06.633Z,98584.81
2023-06-10T22:34:34.002Z,98574.91
2023-06-10T22:37:01.376Z,98589.84
2023-06-10T22:39:28.705Z,98589.81
2023-06-10T22:41:56.366Z,98583.47
2023-06-10T22:44:23.613Z,98593.34
2023-06-10T22:46:51.044Z,98590.72
2023-06-10T22:49:18.624Z,98585.09
2023-06-10T22:51:47.376Z,98597.25
2023-06-10T22:54:15.270Z,98584.03
2023-06-10T22:56:42.822Z,98593.00
2023-06-10T22:59:11.638Z,98589.69
2023-06-10T23:01:39.282Z,98600.47
2023-06-10T23:04:06.524Z,98596.81
2023-06-10T23:06:33.798Z,98594.03
2023-06-10T23:09:01.023Z,98591.41
2023-06-10T23:11:28.208Z,98595.56
2023-06-10T23:13:55.537Z,98597.16
2023-06-10T23:16:22.844Z,98596.16
2023-06-10T23:18:51.080Z,98601.97
2023-06-10T23:21:20.015Z,98604.94
2023-06-10T23:23:53.025Z,98609.75
2023-06-10T23:26:20.692Z,98617.41
2023-06-10T23:28:48.048Z,98606.97
2023-06-10T23:31:17.173Z,98609.00
2023-06-10T23:33:45.318Z,98616.19
2023-06-10T23:36:14.004Z,98607.06
2023-06-10T23:38:41.727Z,98611.06
2023-06-10T23:41:09.064Z,98614.78
2023-06-10T23:43:36.493Z,98617.75
2023-06-10T23:46:03.915Z,98616.81
2023-06-10T23:48:31.176Z,98617.84
2023-06-10T23:51:00.995Z,98616.16
2023-06-10T23:53:28.400Z,98616.63
2023-06-10T23:55:55.849Z,98620.41
2023-06-10T23:58:23.191Z,98621.22
